This is the latest recevied weather packets stored in our database for station/object N8SDR. If no packets are shown the sender has not sent any weather packets the latest 10 day(s).
| Time | Temp. | Humidity | Pressure | Rain* | Wind** | Luminosity | Snow |
|---|---|---|---|---|---|---|---|
| 1777658661 | 11.67° C | 70% | 1011 hPa | 0 mm | - | 940 W/m² | - |
| 1777658357 | 12.78° C | 67% | 1011.2 hPa | 0 mm | - | 917 W/m² | - |
| 1777658055 | 12.22° C | 68% | 1011 hPa | 0 mm | - | 416 W/m² | - |
| 1777657751 | 11.67° C | 68% | 1011 hPa | 0 mm | - | 298 W/m² | - |
| 1777657449 | 11.67° C | 70% | 1011 hPa | 0 mm | - | 410 W/m² | - |
| 1777657146 | 11.67° C | 69% | 1010.8 hPa | 0 mm | - | 258 W/m² | - |
| 1777656844 | 12.22° C | 69% | 1010.6 hPa | 0 mm | - | 342 W/m² | - |
| 1777656539 | 12.22° C | 68% | 1010.8 hPa | 0 mm | - | 906 W/m² | - |
| 1777656234 | 12.78° C | 68% | 1010.4 hPa | 0 mm | - | 982 W/m² | - |
| 1777655930 | 12.22° C | 69% | 1010.4 hPa | 0 mm | - | 952 W/m² | - |
| 1777655627 | 12.22° C | 69% | 1010.5 hPa | 0 mm | - | 311 W/m² | - |
| 1777655324 | 12.22° C | 71% | 1010.4 hPa | 0 mm | - | 323 W/m² | - |
| 1777655021 | 12.22° C | 71% | 1010.4 hPa | 0 mm | - | 258 W/m² | - |
| 1777654718 | 12.22° C | 73% | 1010.4 hPa | 0 mm | - | 712 W/m² | - |
| 1777654416 | 12.22° C | 70% | 1010.4 hPa | 0 mm | - | 908 W/m² | - |
| 1777654114 | 12.22° C | 70% | 1010.3 hPa | 0 mm | - | 801 W/m² | - |
| 1777653812 | 12.22° C | 70% | 1010 hPa | 0 mm | - | 489 W/m² | - |
| 1777653507 | 11.67° C | 69% | 1010 hPa | 0 mm | - | 807 W/m² | - |
| 1777653204 | 11.67° C | 71% | 1010.1 hPa | 0 mm | - | 850 W/m² | - |
| 1777652901 | 12.22° C | 72% | 1010.2 hPa | 0 mm | - | 592 W/m² | - |
| 1777652597 | 11.67° C | 74% | 1010.1 hPa | 0 mm | - | 847 W/m² | - |
| 1777652294 | 10.56° C | 81% | 1009.9 hPa | 0 mm | - | 820 W/m² | - |
| 1777651991 | 11.11° C | 80% | 1010 hPa | 0 mm | - | 206 W/m² | - |
| 1777651688 | 10° C | 81% | 1009.8 hPa | 0 mm | - | 265 W/m² | - |
| 1777651384 | 10° C | 81% | 1009.9 hPa | 0 mm | - | 91 W/m² | - |
* Rain latest hour (hover to see other rain measurements)
** Current wind speed in m/s (hover to see current wind gust speed)